sensor_id;sensor_type;location;lat;lon;timestamp;temperature;humidity
11242;DHT22;5678;52.370;9.006;2024-02-21T18:05:50;8.80;1.00
11242;DHT22;5678;52.370;9.006;2024-02-21T18:08:19;8.80;1.00
11242;DHT22;5678;52.370;9.006;2024-02-21T18:10:47;8.80;1.00
11242;DHT22;5678;52.370;9.006;2024-02-21T18:13:15;9.00;1.00
11242;DHT22;5678;52.370;9.006;2024-02-21T18:15:43;8.80;1.00
11242;DHT22;5678;52.370;9.006;2024-02-21T18:18:12;8.80;1.00
11242;DHT22;5678;52.370;9.006;2024-02-21T18:20:40;8.80;1.00
11242;DHT22;5678;52.370;9.006;2024-02-21T18:23:10;8.80;1.00
11242;DHT22;5678;52.370;9.006;2024-02-21T18:25:38;8.80;1.00
11242;DHT22;5678;52.370;9.006;2024-02-21T18:28:07;8.80;1.00
11242;DHT22;5678;52.370;9.006;2024-02-21T18:30:35;8.80;1.00
11242;DHT22;5678;52.370;9.006;2024-02-21T18:33:03;8.80;1.00
11242;DHT22;5678;52.370;9.006;2024-02-21T18:35:31;8.80;1.00
11242;DHT22;5678;52.370;9.006;2024-02-21T18:38:00;8.80;1.00
11242;DHT22;5678;52.370;9.006;2024-02-21T18:40:30;8.80;1.00
11242;DHT22;5678;52.370;9.006;2024-02-21T18:42:58;8.80;1.00
11242;DHT22;5678;52.370;9.006;2024-02-21T18:45:28;8.80;1.00
11242;DHT22;5678;52.370;9.006;2024-02-21T18:47:56;8.80;1.00
11242;DHT22;5678;52.370;9.006;2024-02-21T18:50:24;8.80;1.00
11242;DHT22;5678;52.370;9.006;2024-02-21T18:52:53;8.90;1.00
11242;DHT22;5678;52.370;9.006;2024-02-21T18:55:22;8.80;1.00
11242;DHT22;5678;52.370;9.006;2024-02-21T18:57:52;8.80;1.00
11242;DHT22;5678;52.370;9.006;2024-02-21T19:00:20;8.80;1.00
11242;DHT22;5678;52.370;9.006;2024-02-21T19:02:51;8.80;1.00
11242;DHT22;5678;52.370;9.006;2024-02-21T19:05:19;8.90;1.00
11242;DHT22;5678;52.370;9.006;2024-02-21T19:07:49;8.90;1.00
11242;DHT22;5678;52.370;9.006;2024-02-21T19:10:17;8.90;1.00
11242;DHT22;5678;52.370;9.006;2024-02-21T19:12:47;8.90;1.00
11242;DHT22;5678;52.370;9.006;2024-02-21T19:15:16;8.90;1.00
11242;DHT22;5678;52.370;9.006;2024-02-21T19:17:44;9.00;1.00
11242;DHT22;5678;52.370;9.006;2024-02-21T19:20:12;9.00;1.00
11242;DHT22;5678;52.370;9.006;2024-02-21T19:22:41;9.00;1.00
11242;DHT22;5678;52.370;9.006;2024-02-21T19:25:12;9.00;1.00
11242;DHT22;5678;52.370;9.006;2024-02-21T19:27:44;8.90;1.00
11242;DHT22;5678;52.370;9.006;2024-02-21T19:30:13;8.90;1.00
11242;DHT22;5678;52.370;9.006;2024-02-21T19:32:43;8.90;1.00
11242;DHT22;5678;52.370;9.006;2024-02-21T19:35:11;8.90;1.00
11242;DHT22;5678;52.370;9.006;2024-02-21T19:37:41;8.90;1.00
11242;DHT22;5678;52.370;9.006;2024-02-21T19:40:09;8.90;1.00
11242;DHT22;5678;52.370;9.006;2024-02-21T19:42:39;8.90;1.00
11242;DHT22;5678;52.370;9.006;2024-02-21T19:45:08;8.90;1.00
11242;DHT22;5678;52.370;9.006;2024-02-21T19:47:36;8.80;1.00
11242;DHT22;5678;52.370;9.006;2024-02-21T19:50:06;8.80;1.00
11242;DHT22;5678;52.370;9.006;2024-02-21T19:52:35;8.80;1.00
11242;DHT22;5678;52.370;9.006;2024-02-21T19:55:03;8.80;1.00
11242;DHT22;5678;52.370;9.006;2024-02-21T19:57:31;8.80;1.00
11242;DHT22;5678;52.370;9.006;2024-02-21T19:59:59;8.80;1.00
11242;DHT22;5678;52.370;9.006;2024-02-21T20:02:27;8.70;1.00
11242;DHT22;5678;52.370;9.006;2024-02-21T20:04:56;8.80;1.00
11242;DHT22;5678;52.370;9.006;2024-02-21T20:07:25;8.70;1.00
11242;DHT22;5678;52.370;9.006;2024-02-21T20:09:53;8.80;1.00
11242;DHT22;5678;52.370;9.006;2024-02-21T20:12:21;8.90;1.00
11242;DHT22;5678;52.370;9.006;2024-02-21T20:14:52;8.80;1.00
11242;DHT22;5678;52.370;9.006;2024-02-21T20:17:20;8.80;1.00
11242;DHT22;5678;52.370;9.006;2024-02-21T20:19:49;8.90;1.00
11242;DHT22;5678;52.370;9.006;2024-02-21T20:22:18;8.80;1.00
11242;DHT22;5678;52.370;9.006;2024-02-21T20:24:48;8.80;1.00
11242;DHT22;5678;52.370;9.006;2024-02-21T20:27:16;8.80;1.00
11242;DHT22;5678;52.370;9.006;2024-02-21T20:29:44;8.70;1.00
11242;DHT22;5678;52.370;9.006;2024-02-21T20:32:12;8.70;1.00
11242;DHT22;5678;52.370;9.006;2024-02-21T20:34:40;8.70;1.00
11242;DHT22;5678;52.370;9.006;2024-02-21T20:37:10;8.60;1.00
11242;DHT22;5678;52.370;9.006;2024-02-21T20:39:38;8.60;1.00
11242;DHT22;5678;52.370;9.006;2024-02-21T20:42:08;8.60;1.00
11242;DHT22;5678;52.370;9.006;2024-02-21T20:44:36;8.50;1.00
11242;DHT22;5678;52.370;9.006;2024-02-21T20:47:04;8.60;1.00
11242;DHT22;5678;52.370;9.006;2024-02-21T20:49:32;8.50;1.00
11242;DHT22;5678;52.370;9.006;2024-02-21T20:52:00;8.50;1.00
11242;DHT22;5678;52.370;9.006;2024-02-21T20:54:29;8.40;1.00
11242;DHT22;5678;52.370;9.006;2024-02-21T20:56:57;8.40;1.00
11242;DHT22;5678;52.370;9.006;2024-02-21T20:59:26;8.70;1.00
11242;DHT22;5678;52.370;9.006;2024-02-21T21:01:54;8.40;1.00
11242;DHT22;5678;52.370;9.006;2024-02-21T21:04:29;8.30;99.90
11242;DHT22;5678;52.370;9.006;2024-02-21T21:06:58;8.30;99.90
11242;DHT22;5678;52.370;9.006;2024-02-21T21:09:26;8.30;1.00
11242;DHT22;5678;52.370;9.006;2024-02-21T21:11:54;8.50;1.00
11242;DHT22;5678;52.370;9.006;2024-02-21T21:14:23;8.20;1.00
11242;DHT22;5678;52.370;9.006;2024-02-21T21:16:54;8.20;1.00
11242;DHT22;5678;52.370;9.006;2024-02-21T21:19:22;8.20;99.90
11242;DHT22;5678;52.370;9.006;2024-02-21T21:21:54;8.20;99.90
11242;DHT22;5678;52.370;9.006;2024-02-21T21:24:22;8.20;99.90
11242;DHT22;5678;52.370;9.006;2024-02-21T21:26:51;8.20;99.90
11242;DHT22;5678;52.370;9.006;2024-02-21T21:29:19;8.20;99.90
11242;DHT22;5678;52.370;9.006;2024-02-21T21:31:48;8.20;99.90
11242;DHT22;5678;52.370;9.006;2024-02-21T21:34:20;8.20;99.90
11242;DHT22;5678;52.370;9.006;2024-02-21T21:36:50;8.10;1.00
11242;DHT22;5678;52.370;9.006;2024-02-21T21:39:18;8.10;1.00
11242;DHT22;5678;52.370;9.006;2024-02-21T21:41:47;8.10;1.00
11242;DHT22;5678;52.370;9.006;2024-02-21T21:44:15;8.10;99.90
11242;DHT22;5678;52.370;9.006;2024-02-21T21:46:44;8.10;1.00
11242;DHT22;5678;52.370;9.006;2024-02-21T21:49:14;8.30;99.90
11242;DHT22;5678;52.370;9.006;2024-02-21T21:51:44;8.00;1.00
11242;DHT22;5678;52.370;9.006;2024-02-21T21:54:12;8.00;99.90
11242;DHT22;5678;52.370;9.006;2024-02-21T21:56:40;8.00;1.00
11242;DHT22;5678;52.370;9.006;2024-02-21T21:59:08;7.90;1.00
11242;DHT22;5678;52.370;9.006;2024-02-21T22:01:38;8.00;1.00
11242;DHT22;5678;52.370;9.006;2024-02-21T22:04:07;7.90;99.90
11242;DHT22;5678;52.370;9.006;2024-02-21T22:06:35;7.90;1.00
11242;DHT22;5678;52.370;9.006;2024-02-21T22:09:07;7.90;99.90
11242;DHT22;5678;52.370;9.006;2024-02-21T22:11:36;7.90;1.00
11242;DHT22;5678;52.370;9.006;2024-02-21T22:14:04;7.80;1.00
11242;DHT22;5678;52.370;9.006;2024-02-21T22:16:32;7.80;1.00
11242;DHT22;5678;52.370;9.006;2024-02-21T22:19:00;8.00;1.00
11242;DHT22;5678;52.370;9.006;2024-02-21T22:21:29;7.70;99.90
11242;DHT22;5678;52.370;9.006;2024-02-21T22:23:57;7.80;99.90
11242;DHT22;5678;52.370;9.006;2024-02-21T22:26:26;7.70;1.00
11242;DHT22;5678;52.370;9.006;2024-02-21T22:28:54;7.80;1.00
11242;DHT22;5678;52.370;9.006;2024-02-21T22:31:24;7.70;1.00
11242;DHT22;5678;52.370;9.006;2024-02-21T22:33:52;7.70;1.00
11242;DHT22;5678;52.370;9.006;2024-02-21T22:36:24;7.70;31.00
11242;DHT22;5678;52.370;9.006;2024-02-21T22:38:52;7.60;99.90
11242;DHT22;5678;52.370;9.006;2024-02-21T22:41:20;7.60;99.90
11242;DHT22;5678;52.370;9.006;2024-02-21T22:44:14;7.60;99.90
11242;DHT22;5678;52.370;9.006;2024-02-21T22:46:49;7.60;99.90
11242;DHT22;5678;52.370;9.006;2024-02-21T22:49:20;7.50;99.90
11242;DHT22;5678;52.370;9.006;2024-02-21T22:51:49;7.60;1.00
11242;DHT22;5678;52.370;9.006;2024-02-21T22:54:17;7.60;1.00
11242;DHT22;5678;52.370;9.006;2024-02-21T22:56:45;7.50;1.00
11242;DHT22;5678;52.370;9.006;2024-02-21T22:59:14;7.70;1.00
11242;DHT22;5678;52.370;9.006;2024-02-21T23:01:42;7.50;1.00
11242;DHT22;5678;52.370;9.006;2024-02-21T23:04:11;7.50;1.00
11242;DHT22;5678;52.370;9.006;2024-02-21T23:06:39;7.80;1.00
11242;DHT22;5678;52.370;9.006;2024-02-21T23:09:07;7.50;1.00
11242;DHT22;5678;52.370;9.006;2024-02-21T23:11:35;7.50;1.00
11242;DHT22;5678;52.370;9.006;2024-02-21T23:14:03;7.60;1.00
11242;DHT22;5678;52.370;9.006;2024-02-21T23:16:33;7.70;1.00
11242;DHT22;5678;52.370;9.006;2024-02-21T23:19:01;7.50;1.00
11242;DHT22;5678;52.370;9.006;2024-02-21T23:21:29;7.90;1.00
11242;DHT22;5678;52.370;9.006;2024-02-21T23:23:57;7.50;1.00
11242;DHT22;5678;52.370;9.006;2024-02-21T23:26:27;7.70;1.00
11242;DHT22;5678;52.370;9.006;2024-02-21T23:28:56;7.50;1.00
11242;DHT22;5678;52.370;9.006;2024-02-21T23:31:25;7.70;1.00
11242;DHT22;5678;52.370;9.006;2024-02-21T23:33:54;7.50;1.00
11242;DHT22;5678;52.370;9.006;2024-02-21T23:36:23;7.70;1.00
11242;DHT22;5678;52.370;9.006;2024-02-21T23:38:51;7.50;1.00
11242;DHT22;5678;52.370;9.006;2024-02-21T23:41:19;7.50;1.00
11242;DHT22;5678;52.370;9.006;2024-02-21T23:43:47;7.50;1.00
11242;DHT22;5678;52.370;9.006;2024-02-21T23:46:15;7.50;1.00
11242;DHT22;5678;52.370;9.006;2024-02-21T23:48:46;7.50;1.00
11242;DHT22;5678;52.370;9.006;2024-02-21T23:51:16;7.50;1.00
11242;DHT22;5678;52.370;9.006;2024-02-21T23:53:46;7.50;1.00
11242;DHT22;5678;52.370;9.006;2024-02-21T23:56:14;7.50;1.00
11242;DHT22;5678;52.370;9.006;2024-02-21T23:58:42;7.50;1.00
